KDAB

Daytona Beach International Airport

Daytona Beach, Florida, USA
METAR KDAB 141653Z 19012G19KT 10SM -RA BKN065 BKN130 OVC200 23/21 A3004 RMK AO2 RAB14 SLP170 P0000 T02330211
Observed Flight Rules
Dec-14 @ 16:53 UTC (23 minutes ago) Visual Flight Rules
Wind Visibility Clouds Conditions
190° at 12 knots
 Gusting to 19 knots
10 miles
  • Broken at 6,500' AGL
  • Broken at 13,000' AGL
  • Overcast at 20,000' AGL
  • Light Rain
Temperatures Readings Precipitation
Current 23°C / 73°F
Dewpoint 21°C / 70°F
Humidity 89%
Altimeter 30.04" Hg
Pressure 1017 hPa
Elevation 9
Current Rain 0.005
METAR KDAB 141653Z 19012G19KT 10SM -RA BKN065 BKN130 OVC200 23/21 A3004 RMK AO2 RAB14 SLP170 P0000 T02330211
Observed Flight Rules
Dec-14 @ 16:53 UTC
(23 minutes ago)
VFR
Wind Visibility
190° at 12 knots
 Gusting to 19 knots
10 miles
Clouds
  • Broken at 6,500' AGL
  • Broken at 13,000' AGL
  • Overcast at 20,000' AGL
Conditions
  • Light Rain
Temperature Dewpoint
23°C / 73°F 21°C / 70°F
Humidity Altimeter Pressure
89% 30.04" Hg 1017 hPa
Current Rain
0.005